createdAt,value
2023-03-17T00:00:48.114Z,85.70
2023-03-17T00:03:29.661Z,85.70
2023-03-17T00:05:59.764Z,86.00
2023-03-17T00:08:33.304Z,85.70
2023-03-17T00:11:00.514Z,85.50
2023-03-17T00:13:30.517Z,85.40
2023-03-17T00:16:04.889Z,85.60
2023-03-17T00:18:33.365Z,85.90
2023-03-17T00:21:00.557Z,86.70
2023-03-17T00:23:27.590Z,86.20
2023-03-17T00:25:54.535Z,86.00
2023-03-17T00:28:27.460Z,86.30
2023-03-17T00:31:13.205Z,86.20
2023-03-17T00:33:40.827Z,86.60
2023-03-17T00:36:17.914Z,87.30
2023-03-17T00:38:46.300Z,87.20
2023-03-17T00:41:13.576Z,87.60
2023-03-17T00:43:41.014Z,87.70
2023-03-17T00:46:38.111Z,88.10
2023-03-17T00:49:22.761Z,88.20
2023-03-17T00:51:50.805Z,88.50
2023-03-17T00:54:21.259Z,88.00
2023-03-17T00:56:50.839Z,87.70
2023-03-17T00:59:40.967Z,87.80
2023-03-17T01:02:14.494Z,88.50
2023-03-17T01:04:47.560Z,88.70
2023-03-17T01:07:17.618Z,89.30
2023-03-17T01:09:47.046Z,89.50
2023-03-17T01:12:14.134Z,89.80
2023-03-17T01:14:41.077Z,89.90
2023-03-17T01:17:16.982Z,89.30
2023-03-17T01:19:45.450Z,89.30
2023-03-17T01:22:13.529Z,90.00
2023-03-17T01:24:40.998Z,90.00
2023-03-17T01:27:08.508Z,90.30
2023-03-17T01:29:37.629Z,90.10
2023-03-17T01:32:05.704Z,90.10
2023-03-17T01:34:32.816Z,90.10
2023-03-17T01:36:59.950Z,90.00
2023-03-17T01:39:27.347Z,89.40
2023-03-17T01:41:57.053Z,89.50
2023-03-17T01:44:25.642Z,89.10
2023-03-17T01:46:53.669Z,89.40
2023-03-17T01:49:37.425Z,89.90
2023-03-17T01:52:15.520Z,90.20
2023-03-17T01:55:13.375Z,90.30
2023-03-17T01:58:01.419Z,90.40
2023-03-17T02:00:29.590Z,90.40
2023-03-17T02:02:57.343Z,90.50
2023-03-17T02:05:28.141Z,90.60
2023-03-17T02:07:56.415Z,90.50
2023-03-17T02:10:30.128Z,90.30
2023-03-17T02:13:03.484Z,90.10
2023-03-17T02:15:48.905Z,90.20
2023-03-17T02:18:20.601Z,90.20
2023-03-17T02:20:47.414Z,90.60
2023-03-17T02:23:25.593Z,90.60
2023-03-17T02:25:54.107Z,90.60
2023-03-17T02:28:27.962Z,90.80
2023-03-17T02:30:54.948Z,90.80
2023-03-17T02:33:21.792Z,91.40
2023-03-17T02:35:48.808Z,91.60
2023-03-17T02:38:17.335Z,91.50
2023-03-17T02:40:44.629Z,91.40
2023-03-17T02:43:11.641Z,91.30
2023-03-17T02:45:38.554Z,91.40
2023-03-17T02:48:05.974Z,91.60
2023-03-17T02:50:33.496Z,91.70
2023-03-17T02:53:00.675Z,92.00
2023-03-17T02:55:27.578Z,92.10
2023-03-17T02:57:54.495Z,92.20
2023-03-17T03:00:22.077Z,92.00
2023-03-17T03:02:49.015Z,92.10
2023-03-17T03:05:16.006Z,92.20
2023-03-17T03:07:43.480Z,92.50
2023-03-17T03:10:11.193Z,92.50
2023-03-17T03:12:38.031Z,92.80
2023-03-17T03:15:06.881Z,92.90
2023-03-17T03:17:33.793Z,93.00
2023-03-17T03:20:00.666Z,93.00
2023-03-17T03:22:27.590Z,93.40
2023-03-17T03:24:54.477Z,93.40
2023-03-17T03:27:21.607Z,93.60
2023-03-17T03:29:48.453Z,93.70
2023-03-17T03:32:15.349Z,94.00
2023-03-17T03:34:42.499Z,94.20
2023-03-17T03:37:09.488Z,94.20
2023-03-17T03:39:37.506Z,94.30
2023-03-17T03:42:04.771Z,94.60
2023-03-17T03:44:31.636Z,94.50
2023-03-17T03:46:58.504Z,94.80
2023-03-17T03:49:25.474Z,94.80
2023-03-17T03:51:52.395Z,95.10
2023-03-17T03:54:19.288Z,95.50
2023-03-17T03:56:46.127Z,95.80
2023-03-17T03:59:12.978Z,95.80
2023-03-17T04:01:40.038Z,96.10
2023-03-17T04:04:07.211Z,95.70
2023-03-17T04:06:34.097Z,95.90
2023-03-17T04:09:00.984Z,95.90
2023-03-17T04:11:27.954Z,95.80
2023-03-17T04:13:54.828Z,95.50
2023-03-17T04:16:21.746Z,95.60
2023-03-17T04:18:48.715Z,95.50
2023-03-17T04:21:18.465Z,95.30
2023-03-17T04:23:46.405Z,95.00
2023-03-17T04:26:14.782Z,94.90
2023-03-17T04:28:41.979Z,95.00
2023-03-17T04:31:12.459Z,94.90
2023-03-17T04:33:40.402Z,94.80
2023-03-17T04:36:08.677Z,94.50
2023-03-17T04:38:35.546Z,94.40
2023-03-17T04:41:02.652Z,94.50
2023-03-17T04:43:29.606Z,94.50
2023-03-17T04:45:56.929Z,94.30
2023-03-17T04:48:23.774Z,94.10
2023-03-17T04:50:51.309Z,94.20
2023-03-17T04:53:18.442Z,93.90
2023-03-17T04:55:45.945Z,93.50
2023-03-17T04:58:18.198Z,93.40
2023-03-17T05:00:54.967Z,93.30
2023-03-17T05:03:27.181Z,93.10
2023-03-17T05:05:55.412Z,93.20
2023-03-17T05:08:22.334Z,93.50
2023-03-17T05:10:49.322Z,93.70
2023-03-17T05:13:16.438Z,94.00
2023-03-17T05:15:52.463Z,93.80
2023-03-17T05:18:21.837Z,94.00
2023-03-17T05:20:48.703Z,94.00
2023-03-17T05:23:15.713Z,94.00
2023-03-17T05:25:42.952Z,93.90
2023-03-17T05:28:10.649Z,94.20
2023-03-17T05:30:37.762Z,94.00
2023-03-17T05:33:05.013Z,93.90
2023-03-17T05:35:32.642Z,93.90
2023-03-17T05:37:59.660Z,93.80
2023-03-17T05:40:26.659Z,93.90
2023-03-17T05:42:53.672Z,94.10
2023-03-17T05:45:20.530Z,94.10
2023-03-17T05:47:47.679Z,94.20
2023-03-17T05:50:14.860Z,94.40
2023-03-17T05:52:41.993Z,94.30
2023-03-17T05:55:09.624Z,94.10
2023-03-17T05:57:37.371Z,94.10
2023-03-17T06:00:05.334Z,94.20
2023-03-17T06:02:32.674Z,94.10
2023-03-17T06:04:59.742Z,94.10
2023-03-17T06:07:28.389Z,94.10
2023-03-17T06:09:58.406Z,94.20
2023-03-17T06:12:25.778Z,94.30
2023-03-17T06:14:52.818Z,93.90
2023-03-17T06:17:19.981Z,93.90
2023-03-17T06:19:49.422Z,94.00
2023-03-17T06:22:17.050Z,94.00
2023-03-17T06:24:44.014Z,93.80
2023-03-17T06:27:13.067Z,94.10
2023-03-17T06:29:40.606Z,93.70
2023-03-17T06:32:19.971Z,93.50
2023-03-17T06:34:48.259Z,93.40
2023-03-17T06:37:16.485Z,93.30
2023-03-17T06:39:43.826Z,92.80
2023-03-17T06:42:11.423Z,92.20
2023-03-17T06:44:38.474Z,92.10
2023-03-17T06:47:06.296Z,92.10
2023-03-17T06:49:34.550Z,91.90
2023-03-17T06:52:03.106Z,91.40
2023-03-17T06:54:30.825Z,91.00
2023-03-17T06:56:58.310Z,91.00
2023-03-17T06:59:27.896Z,90.60
2023-03-17T07:01:55.061Z,90.60
2023-03-17T07:04:29.650Z,90.60
2023-03-17T07:06:58.071Z,90.30
2023-03-17T07:09:25.674Z,90.10
2023-03-17T07:11:52.756Z,90.00
2023-03-17T07:14:20.249Z,89.50
2023-03-17T07:16:48.497Z,88.60
2023-03-17T07:19:16.177Z,87.80
2023-03-17T07:21:44.550Z,86.90
2023-03-17T07:24:13.022Z,86.80
2023-03-17T07:26:40.085Z,86.10
2023-03-17T07:29:08.218Z,85.50
2023-03-17T07:31:38.788Z,84.00
2023-03-17T07:34:06.612Z,84.20
2023-03-17T07:36:34.332Z,83.00
2023-03-17T07:39:04.040Z,82.80
2023-03-17T07:41:31.105Z,81.90
2023-03-17T07:43:58.281Z,82.00
2023-03-17T07:46:25.854Z,79.50
2023-03-17T07:48:53.242Z,78.60
2023-03-17T07:51:23.339Z,77.20
2023-03-17T07:53:50.325Z,76.40
2023-03-17T07:56:17.830Z,75.60
2023-03-17T07:58:45.114Z,75.70
2023-03-17T08:01:12.219Z,74.80
2023-03-17T08:03:41.377Z,75.10
2023-03-17T08:06:08.884Z,74.20
2023-03-17T08:08:35.966Z,73.10
2023-03-17T08:11:05.220Z,73.40
2023-03-17T08:13:33.039Z,72.60
2023-03-17T08:16:00.671Z,72.40
2023-03-17T08:18:28.165Z,71.20
2023-03-17T08:20:55.307Z,70.70
2023-03-17T08:23:23.113Z,71.80
2023-03-17T08:25:50.024Z,69.70
2023-03-17T08:28:17.102Z,69.20
2023-03-17T08:30:44.832Z,68.70
2023-03-17T08:33:11.903Z,68.80
2023-03-17T08:35:42.057Z,68.20
2023-03-17T08:38:09.732Z,68.20
2023-03-17T08:40:40.035Z,68.00
2023-03-17T08:43:07.783Z,67.50
2023-03-17T08:45:34.861Z,67.60
2023-03-17T08:48:03.168Z,68.10
2023-03-17T08:50:31.166Z,67.20
2023-03-17T08:53:00.005Z,67.10
2023-03-17T08:55:31.232Z,66.30
2023-03-17T08:57:58.140Z,65.90
2023-03-17T09:00:26.662Z,65.10
2023-03-17T09:02:53.676Z,65.00
2023-03-17T09:05:20.600Z,65.90
2023-03-17T09:07:49.478Z,65.00
2023-03-17T09:10:21.180Z,64.30
2023-03-17T09:12:49.345Z,64.40
2023-03-17T09:15:16.651Z,63.80
2023-03-17T09:17:43.931Z,64.10
2023-03-17T09:20:12.175Z,62.50
2023-03-17T09:22:39.234Z,62.00
2023-03-17T09:25:06.529Z,61.90
2023-03-17T09:27:33.536Z,61.40
2023-03-17T09:30:00.431Z,60.80
2023-03-17T09:32:27.451Z,60.70
2023-03-17T09:34:54.357Z,61.00
2023-03-17T09:37:21.483Z,60.90
2023-03-17T09:39:48.566Z,60.60
2023-03-17T09:43:11.943Z,60.40
2023-03-17T09:45:43.908Z,60.90
2023-03-17T09:48:38.993Z,60.60
2023-03-17T09:51:11.580Z,60.40
2023-03-17T09:54:06.971Z,61.10
2023-03-17T09:56:40.321Z,59.70
2023-03-17T09:59:30.715Z,59.30
2023-03-17T10:01:57.775Z,59.60
2023-03-17T10:04:25.042Z,58.80
2023-03-17T10:07:02.309Z,57.30
2023-03-17T10:10:03.148Z,57.20
2023-03-17T10:13:08.423Z,57.50
2023-03-17T10:15:47.604Z,57.70
2023-03-17T10:18:18.180Z,57.10
2023-03-17T10:20:54.919Z,56.90
2023-03-17T10:23:29.803Z,57.30
2023-03-17T10:26:05.848Z,57.40
2023-03-17T10:28:36.458Z,57.40
2023-03-17T10:31:28.752Z,57.00
2023-03-17T10:34:04.054Z,56.80
2023-03-17T10:36:42.526Z,56.70
2023-03-17T10:39:20.143Z,56.20
2023-03-17T10:42:21.837Z,55.70
2023-03-17T10:44:56.384Z,55.70
2023-03-17T10:47:33.908Z,54.10
2023-03-17T10:50:26.278Z,53.70
2023-03-17T10:53:19.192Z,53.50
2023-03-17T10:55:52.262Z,53.50
2023-03-17T10:58:43.491Z,53.70
2023-03-17T11:01:20.678Z,53.50
2023-03-17T11:03:48.821Z,53.70
2023-03-17T11:06:19.747Z,54.00
2023-03-17T11:08:55.332Z,53.80
2023-03-17T11:11:26.446Z,53.60
2023-03-17T11:14:25.427Z,53.60
2023-03-17T11:17:20.884Z,53.50
2023-03-17T11:20:07.892Z,53.80
2023-03-17T11:22:38.926Z,53.40
2023-03-17T11:25:15.783Z,53.80
2023-03-17T11:28:16.255Z,54.90
2023-03-17T11:31:09.600Z,54.40
2023-03-17T11:33:51.938Z,54.00
2023-03-17T11:36:46.530Z,53.90
2023-03-17T11:39:25.489Z,54.80
2023-03-17T11:42:15.415Z,54.50
2023-03-17T11:45:08.897Z,54.30
2023-03-17T11:48:08.546Z,54.50
2023-03-17T11:50:48.732Z,55.20
2023-03-17T11:53:57.532Z,55.80
2023-03-17T11:56:31.314Z,55.10
2023-03-17T11:59:25.840Z,55.60
2023-03-17T12:02:25.111Z,54.90
2023-03-17T12:05:02.706Z,54.90
2023-03-17T12:07:39.872Z,53.80
2023-03-17T12:10:34.363Z,54.30
2023-03-17T12:13:09.695Z,53.70
2023-03-17T12:15:43.717Z,53.00
2023-03-17T12:18:39.869Z,52.00
2023-03-17T12:21:22.641Z,53.30
2023-03-17T12:24:00.411Z,52.60
2023-03-17T12:26:57.624Z,52.20
2023-03-17T12:29:30.597Z,52.00
2023-03-17T12:32:41.985Z,52.00
2023-03-17T12:35:32.341Z,52.00
2023-03-17T12:38:06.774Z,51.90
2023-03-17T12:40:53.040Z,52.70
2023-03-17T12:43:38.393Z,51.70
2023-03-17T12:46:10.985Z,52.30
2023-03-17T12:49:08.037Z,52.10
2023-03-17T12:51:57.799Z,52.10
2023-03-17T12:54:37.413Z,51.90
2023-03-17T12:57:30.935Z,52.10
2023-03-17T13:00:19.140Z,52.60
2023-03-17T13:02:52.417Z,52.10
2023-03-17T13:05:32.681Z,52.60
2023-03-17T13:08:05.573Z,52.80
2023-03-17T13:10:41.968Z,53.30
2023-03-17T13:13:53.645Z,53.00
2023-03-17T13:16:39.434Z,52.80
2023-03-17T13:19:32.480Z,52.80
2023-03-17T13:22:05.638Z,52.90
2023-03-17T13:24:49.335Z,53.30
2023-03-17T13:27:31.774Z,53.60
2023-03-17T13:30:22.023Z,53.70
2023-03-17T13:33:02.552Z,54.30
2023-03-17T13:36:25.408Z,54.30
2023-03-17T13:39:24.637Z,54.70
2023-03-17T13:42:17.695Z,54.70
2023-03-17T13:45:22.358Z,54.30
2023-03-17T13:47:52.479Z,54.20
2023-03-17T13:50:32.630Z,54.60
2023-03-17T13:53:10.478Z,54.40
2023-03-17T13:55:42.936Z,54.50
2023-03-17T13:58:11.676Z,54.60
2023-03-17T14:00:45.139Z,54.70
2023-03-17T14:03:19.885Z,54.50
2023-03-17T14:05:51.201Z,55.40
2023-03-17T14:08:32.267Z,55.40
2023-03-17T14:11:08.970Z,55.30
2023-03-17T14:13:48.499Z,55.50
2023-03-17T14:16:36.093Z,55.80
2023-03-17T14:19:29.554Z,55.90
2023-03-17T14:22:04.542Z,56.10
2023-03-17T14:24:34.103Z,55.90
2023-03-17T14:27:07.898Z,55.80
2023-03-17T14:29:36.817Z,56.30
2023-03-17T14:32:13.372Z,56.10
2023-03-17T14:34:59.687Z,55.60
2023-03-17T14:37:28.296Z,55.80
2023-03-17T14:39:57.949Z,55.70
2023-03-17T14:42:31.317Z,55.90
2023-03-17T14:45:08.819Z,56.00
2023-03-17T14:47:40.931Z,56.40
2023-03-17T14:50:20.597Z,55.80
2023-03-17T14:52:50.597Z,55.70
2023-03-17T14:55:19.771Z,56.10
2023-03-17T14:58:21.672Z,55.20
2023-03-17T15:01:05.448Z,55.40
2023-03-17T15:03:39.148Z,54.90
2023-03-17T15:06:18.212Z,55.40
2023-03-17T15:08:46.537Z,55.90
2023-03-17T15:11:40.560Z,55.90
2023-03-17T15:14:31.805Z,56.10
2023-03-17T15:17:02.393Z,56.60
2023-03-17T15:19:40.516Z,56.90
2023-03-17T15:22:34.780Z,57.60
2023-03-17T15:25:28.444Z,57.30
2023-03-17T15:27:56.208Z,57.30
2023-03-17T15:30:31.656Z,57.50
2023-03-17T15:33:04.254Z,57.40
2023-03-17T15:35:31.489Z,57.70
2023-03-17T15:37:58.565Z,57.80
2023-03-17T15:40:25.625Z,58.20
2023-03-17T15:42:55.311Z,57.90
2023-03-17T15:45:22.824Z,58.00
2023-03-17T15:47:49.867Z,58.20
2023-03-17T15:50:31.919Z,58.20
2023-03-17T15:52:59.036Z,58.40
2023-03-17T15:55:31.137Z,58.80
2023-03-17T15:57:59.521Z,58.60
2023-03-17T16:00:29.899Z,58.90
2023-03-17T16:03:02.890Z,59.10
2023-03-17T16:05:33.516Z,59.30
2023-03-17T16:08:01.433Z,59.30
2023-03-17T16:10:31.772Z,59.60
2023-03-17T16:12:59.337Z,59.80
2023-03-17T16:15:31.332Z,59.80
2023-03-17T16:18:02.545Z,60.20
2023-03-17T16:20:46.151Z,60.00
2023-03-17T16:23:24.032Z,60.20
2023-03-17T16:25:52.625Z,60.00
2023-03-17T16:28:25.141Z,60.00
2023-03-17T16:30:55.529Z,60.10
2023-03-17T16:33:26.586Z,60.30
2023-03-17T16:35:55.700Z,60.60
2023-03-17T16:38:26.823Z,60.80
2023-03-17T16:40:59.738Z,60.40
2023-03-17T16:43:33.890Z,60.30
2023-03-17T16:46:03.235Z,60.70
2023-03-17T16:48:30.963Z,60.60
2023-03-17T16:50:58.687Z,60.50
2023-03-17T16:53:26.271Z,60.80
2023-03-17T16:55:55.236Z,60.90
2023-03-17T16:58:32.830Z,61.60
2023-03-17T17:01:06.236Z,61.10
2023-03-17T17:03:33.251Z,61.20
2023-03-17T17:06:00.336Z,61.40
2023-03-17T17:08:27.324Z,61.60
2023-03-17T17:10:54.291Z,61.80
2023-03-17T17:13:21.194Z,61.90
2023-03-17T17:15:48.176Z,61.90
2023-03-17T17:18:21.681Z,62.20
2023-03-17T17:20:51.968Z,62.50
2023-03-17T17:23:23.224Z,62.30
2023-03-17T17:25:51.392Z,62.40
2023-03-17T17:28:22.921Z,62.60
2023-03-17T17:30:52.167Z,63.00
2023-03-17T17:33:21.133Z,63.90
2023-03-17T17:35:49.666Z,64.20
2023-03-17T17:38:26.713Z,63.90
2023-03-17T17:40:56.903Z,64.00
2023-03-17T17:43:24.955Z,64.30
2023-03-17T17:45:53.112Z,64.70
2023-03-17T17:48:23.624Z,64.80
2023-03-17T17:50:53.183Z,64.80
2023-03-17T17:53:20.525Z,65.00
2023-03-17T17:55:49.465Z,65.00
2023-03-17T17:58:24.084Z,65.40
2023-03-17T18:00:55.206Z,65.50
2023-03-17T18:03:25.314Z,65.60
2023-03-17T18:05:58.141Z,66.00
2023-03-17T18:08:26.013Z,66.10
2023-03-17T18:10:52.947Z,66.20
2023-03-17T18:13:19.864Z,66.50
2023-03-17T18:15:47.003Z,66.60
2023-03-17T18:18:16.680Z,67.00
2023-03-17T18:20:43.924Z,67.10
2023-03-17T18:23:11.194Z,67.40
2023-03-17T18:25:38.101Z,67.70
2023-03-17T18:28:06.249Z,68.20
2023-03-17T18:30:45.915Z,68.60
2023-03-17T18:33:19.807Z,69.20
2023-03-17T18:35:52.170Z,69.50
2023-03-17T18:38:20.838Z,69.80
2023-03-17T18:40:51.528Z,70.20
2023-03-17T18:43:22.803Z,70.40
2023-03-17T18:45:50.983Z,70.80
2023-03-17T18:48:20.124Z,71.50
2023-03-17T18:50:48.820Z,71.80
2023-03-17T18:53:16.400Z,72.40
2023-03-17T18:55:43.290Z,72.90
2023-03-17T18:58:10.358Z,73.40
2023-03-17T19:00:37.456Z,74.00
2023-03-17T19:03:04.469Z,74.60
2023-03-17T19:05:31.303Z,74.90
2023-03-17T19:07:58.191Z,75.30
2023-03-17T19:10:25.039Z,75.90
2023-03-17T19:12:53.290Z,76.50
2023-03-17T19:15:21.127Z,77.00
2023-03-17T19:17:50.385Z,77.50
2023-03-17T19:20:18.748Z,77.90
2023-03-17T19:22:46.440Z,78.30
2023-03-17T19:25:13.483Z,79.20
2023-03-17T19:27:40.621Z,80.00
2023-03-17T19:30:08.853Z,80.80
2023-03-17T19:32:35.770Z,81.60
2023-03-17T19:35:02.723Z,82.10
2023-03-17T19:37:31.970Z,82.60
2023-03-17T19:39:58.948Z,82.70
2023-03-17T19:42:26.183Z,83.20
2023-03-17T19:44:53.120Z,83.60
2023-03-17T19:47:20.120Z,84.20
2023-03-17T19:49:47.414Z,84.40
2023-03-17T19:52:14.626Z,84.80
2023-03-17T19:54:45.864Z,85.40
2023-03-17T19:57:13.936Z,85.90
2023-03-17T19:59:41.461Z,86.20
2023-03-17T20:02:13.001Z,86.50
2023-03-17T20:04:40.356Z,87.00
2023-03-17T20:07:07.539Z,87.20
2023-03-17T20:09:37.643Z,87.40
2023-03-17T20:12:05.813Z,87.30
2023-03-17T20:14:32.669Z,87.60
2023-03-17T20:16:59.629Z,87.80
2023-03-17T20:19:26.536Z,87.90
2023-03-17T20:21:53.864Z,88.20
2023-03-17T20:24:20.924Z,88.40
2023-03-17T20:26:49.396Z,88.30
2023-03-17T20:29:17.461Z,88.40
2023-03-17T20:31:44.413Z,88.60
2023-03-17T20:34:11.709Z,88.70
2023-03-17T20:36:42.208Z,89.00
2023-03-17T20:39:13.889Z,89.20
2023-03-17T20:41:41.284Z,89.40
2023-03-17T20:44:08.330Z,89.30
2023-03-17T20:46:35.290Z,89.40
2023-03-17T20:49:03.059Z,89.30
2023-03-17T20:51:29.885Z,89.40
2023-03-17T20:53:57.208Z,89.90
2023-03-17T20:56:26.721Z,89.90
2023-03-17T20:58:54.269Z,90.00
2023-03-17T21:01:22.274Z,90.10
2023-03-17T21:03:51.522Z,90.30
2023-03-17T21:06:20.750Z,90.70
2023-03-17T21:08:49.030Z,90.60
2023-03-17T21:11:19.550Z,90.70
2023-03-17T21:13:47.087Z,90.80
2023-03-17T21:16:22.439Z,91.00
2023-03-17T21:18:54.015Z,91.10
2023-03-17T21:21:22.880Z,91.30
2023-03-17T21:23:52.068Z,91.30
2023-03-17T21:26:19.568Z,91.40
2023-03-17T21:28:47.656Z,91.50
2023-03-17T21:31:17.063Z,91.70
2023-03-17T21:33:51.402Z,91.80
2023-03-17T21:36:22.157Z,91.90
2023-03-17T21:38:49.295Z,92.10
2023-03-17T21:41:22.371Z,92.30
2023-03-17T21:43:50.432Z,92.70
2023-03-17T21:46:17.641Z,92.90
2023-03-17T21:48:45.107Z,93.30
2023-03-17T21:51:12.842Z,93.60
2023-03-17T21:53:41.465Z,94.00
2023-03-17T21:56:09.479Z,94.30
2023-03-17T21:58:37.780Z,94.80
2023-03-17T22:01:05.482Z,95.20
2023-03-17T22:03:32.880Z,95.50
2023-03-17T22:06:00.335Z,95.80
2023-03-17T22:08:27.293Z,96.00
2023-03-17T22:10:54.921Z,96.40
2023-03-17T22:13:26.892Z,96.60
2023-03-17T22:15:54.167Z,96.90
2023-03-17T22:18:21.192Z,97.10
2023-03-17T22:20:50.050Z,97.40
2023-03-17T22:23:16.954Z,97.70
2023-03-17T22:25:44.076Z,98.00
2023-03-17T22:28:11.038Z,98.20
2023-03-17T22:30:39.592Z,98.60
2023-03-17T22:33:07.646Z,99.00
2023-03-17T22:35:36.441Z,99.20
2023-03-17T22:38:04.766Z,99.90
2023-03-17T22:40:32.100Z,99.90
2023-03-17T22:42:59.645Z,99.90
2023-03-17T22:45:27.328Z,99.90
2023-03-17T22:47:55.959Z,99.90
2023-03-17T22:50:26.038Z,99.90
2023-03-17T22:52:53.053Z,99.90
2023-03-17T22:55:20.079Z,99.90
2023-03-17T22:57:47.303Z,99.90
2023-03-17T23:00:16.697Z,99.90
2023-03-17T23:02:46.476Z,99.90
2023-03-17T23:05:14.589Z,99.90
2023-03-17T23:07:51.504Z,99.90
2023-03-17T23:10:25.267Z,99.90
2023-03-17T23:12:52.839Z,99.90
2023-03-17T23:15:21.309Z,99.90
2023-03-17T23:17:48.621Z,99.90
2023-03-17T23:20:17.488Z,99.90
2023-03-17T23:22:52.686Z,99.90
2023-03-17T23:25:20.126Z,99.90
2023-03-17T23:27:48.096Z,99.90
2023-03-17T23:30:17.918Z,99.90
2023-03-17T23:32:49.341Z,99.90
2023-03-17T23:35:20.623Z,99.90
2023-03-17T23:37:48.784Z,99.90
2023-03-17T23:40:17.302Z,99.90
2023-03-17T23:42:47.988Z,99.90
2023-03-17T23:45:18.097Z,99.90
2023-03-17T23:47:47.206Z,99.90
2023-03-17T23:50:15.766Z,99.90
2023-03-17T23:52:43.814Z,99.90
2023-03-17T23:55:12.589Z,99.90
2023-03-17T23:57:39.718Z,99.90
